Garrison, Nebraska
Current Conditions -  °F | °C
As of 5:15 PM on Tuesday 25 Nov 2014 (Local Time) from KOLU Reporting Station
Broken Clouds Broken Clouds  
Wind Chill: 37°   Ceiling: 6000
Heat Index: 43°   Visibility: 10mi
Dew Point: 25°   Wind: 12mph
Humidity: 49%   Direction: 200°SSW
Pressure: 29.9"   Gusts: NA
Location:  41.1947°N, 97.127°W
Report Text: KOLU 252315Z AUTO 20010KT 10SM FEW043 BKN060 BKN065 06/M04 A2990 RMK AO1
Loading
Personal Weather Stations






























Interactive Weather Map New forecast layout! Learn more

10-Day Weather Forecast

Advertisements
Track Severe Weather on mobile